sensor_id;sensor_type;location;lat;lon;timestamp;P1;durP1;ratioP1;P2;durP2;ratioP2
11665;SDS011;5889;51.350;6.708;2023-10-19T00:00:30;8.50;;;6.70;;
11665;SDS011;5889;51.350;6.708;2023-10-19T00:02:58;10.53;;;6.40;;
11665;SDS011;5889;51.350;6.708;2023-10-19T00:05:27;8.07;;;6.63;;
11665;SDS011;5889;51.350;6.708;2023-10-19T00:07:55;8.40;;;5.83;;
11665;SDS011;5889;51.350;6.708;2023-10-19T00:10:26;8.50;;;6.10;;
11665;SDS011;5889;51.350;6.708;2023-10-19T00:12:56;11.13;;;6.90;;
11665;SDS011;5889;51.350;6.708;2023-10-19T00:15:29;12.47;;;6.57;;
11665;SDS011;5889;51.350;6.708;2023-10-19T00:17:57;10.33;;;7.20;;
11665;SDS011;5889;51.350;6.708;2023-10-19T00:20:34;8.90;;;6.90;;
11665;SDS011;5889;51.350;6.708;2023-10-19T00:23:03;10.70;;;7.10;;
11665;SDS011;5889;51.350;6.708;2023-10-19T00:25:32;9.47;;;6.80;;
11665;SDS011;5889;51.350;6.708;2023-10-19T00:27:59;8.83;;;6.30;;
11665;SDS011;5889;51.350;6.708;2023-10-19T00:30:29;12.40;;;7.80;;
11665;SDS011;5889;51.350;6.708;2023-10-19T00:32:58;7.43;;;5.60;;
11665;SDS011;5889;51.350;6.708;2023-10-19T00:35:29;9.40;;;6.90;;
11665;SDS011;5889;51.350;6.708;2023-10-19T00:38:01;8.70;;;6.90;;
11665;SDS011;5889;51.350;6.708;2023-10-19T00:40:43;10.40;;;7.00;;
11665;SDS011;5889;51.350;6.708;2023-10-19T00:43:25;9.60;;;6.83;;
11665;SDS011;5889;51.350;6.708;2023-10-19T00:45:53;8.07;;;6.33;;
11665;SDS011;5889;51.350;6.708;2023-10-19T00:48:20;9.30;;;7.60;;
11665;SDS011;5889;51.350;6.708;2023-10-19T00:50:51;8.40;;;7.27;;
11665;SDS011;5889;51.350;6.708;2023-10-19T00:53:31;10.07;;;7.73;;
11665;SDS011;5889;51.350;6.708;2023-10-19T00:56:02;11.33;;;7.50;;
11665;SDS011;5889;51.350;6.708;2023-10-19T00:58:31;9.97;;;7.73;;
11665;SDS011;5889;51.350;6.708;2023-10-19T01:01:01;11.17;;;8.17;;
11665;SDS011;5889;51.350;6.708;2023-10-19T01:06:40;13.60;;;8.37;;
11665;SDS011;5889;51.350;6.708;2023-10-19T01:09:10;10.53;;;7.57;;
11665;SDS011;5889;51.350;6.708;2023-10-19T01:11:41;11.83;;;8.30;;
11665;SDS011;5889;51.350;6.708;2023-10-19T01:14:20;10.33;;;7.43;;
11665;SDS011;5889;51.350;6.708;2023-10-19T01:16:48;16.77;;;8.47;;
11665;SDS011;5889;51.350;6.708;2023-10-19T01:19:15;10.47;;;7.27;;
11665;SDS011;5889;51.350;6.708;2023-10-19T01:21:43;9.70;;;7.20;;
11665;SDS011;5889;51.350;6.708;2023-10-19T01:24:17;11.73;;;7.87;;
11665;SDS011;5889;51.350;6.708;2023-10-19T01:26:49;9.60;;;7.67;;
11665;SDS011;5889;51.350;6.708;2023-10-19T01:29:18;13.73;;;9.23;;
11665;SDS011;5889;51.350;6.708;2023-10-19T01:31:52;12.20;;;8.40;;
11665;SDS011;5889;51.350;6.708;2023-10-19T01:34:29;11.50;;;8.17;;
11665;SDS011;5889;51.350;6.708;2023-10-19T01:36:58;11.00;;;8.77;;
11665;SDS011;5889;51.350;6.708;2023-10-19T01:39:29;13.80;;;9.60;;
11665;SDS011;5889;51.350;6.708;2023-10-19T01:41:56;13.37;;;8.70;;
11665;SDS011;5889;51.350;6.708;2023-10-19T01:44:23;10.73;;;8.07;;
11665;SDS011;5889;51.350;6.708;2023-10-19T01:46:51;11.40;;;8.73;;
11665;SDS011;5889;51.350;6.708;2023-10-19T01:49:17;14.17;;;9.10;;
11665;SDS011;5889;51.350;6.708;2023-10-19T01:51:51;10.97;;;8.00;;
11665;SDS011;5889;51.350;6.708;2023-10-19T01:54:19;8.80;;;7.67;;
11665;SDS011;5889;51.350;6.708;2023-10-19T01:56:50;11.67;;;8.07;;
11665;SDS011;5889;51.350;6.708;2023-10-19T01:59:20;11.93;;;8.80;;
11665;SDS011;5889;51.350;6.708;2023-10-19T02:01:47;11.67;;;8.93;;
11665;SDS011;5889;51.350;6.708;2023-10-19T02:04:14;13.07;;;9.07;;
11665;SDS011;5889;51.350;6.708;2023-10-19T02:06:41;11.10;;;8.37;;
11665;SDS011;5889;51.350;6.708;2023-10-19T02:09:07;10.57;;;7.97;;
11665;SDS011;5889;51.350;6.708;2023-10-19T02:11:42;12.37;;;9.40;;
11665;SDS011;5889;51.350;6.708;2023-10-19T02:14:12;10.10;;;7.43;;
11665;SDS011;5889;51.350;6.708;2023-10-19T02:16:40;9.53;;;7.30;;
11665;SDS011;5889;51.350;6.708;2023-10-19T02:19:06;14.20;;;8.90;;
11665;SDS011;5889;51.350;6.708;2023-10-19T02:21:33;11.67;;;8.60;;
11665;SDS011;5889;51.350;6.708;2023-10-19T02:24:05;10.77;;;8.57;;
11665;SDS011;5889;51.350;6.708;2023-10-19T02:26:32;11.30;;;8.20;;
11665;SDS011;5889;51.350;6.708;2023-10-19T02:29:00;11.23;;;7.63;;
11665;SDS011;5889;51.350;6.708;2023-10-19T02:31:33;9.33;;;6.73;;
11665;SDS011;5889;51.350;6.708;2023-10-19T02:34:02;9.97;;;7.73;;
11665;SDS011;5889;51.350;6.708;2023-10-19T02:36:30;12.13;;;8.23;;
11665;SDS011;5889;51.350;6.708;2023-10-19T02:38:58;10.77;;;6.77;;
11665;SDS011;5889;51.350;6.708;2023-10-19T02:41:26;8.37;;;6.30;;
11665;SDS011;5889;51.350;6.708;2023-10-19T02:43:53;10.30;;;7.43;;
11665;SDS011;5889;51.350;6.708;2023-10-19T02:46:27;9.97;;;7.47;;
11665;SDS011;5889;51.350;6.708;2023-10-19T02:48:55;8.90;;;7.60;;
11665;SDS011;5889;51.350;6.708;2023-10-19T02:51:22;9.30;;;7.57;;
11665;SDS011;5889;51.350;6.708;2023-10-19T02:53:49;9.73;;;7.10;;
11665;SDS011;5889;51.350;6.708;2023-10-19T02:56:15;11.47;;;7.10;;
11665;SDS011;5889;51.350;6.708;2023-10-19T02:58:44;8.23;;;6.47;;
11665;SDS011;5889;51.350;6.708;2023-10-19T03:01:14;8.97;;;6.77;;
11665;SDS011;5889;51.350;6.708;2023-10-19T03:03:46;12.00;;;7.43;;
11665;SDS011;5889;51.350;6.708;2023-10-19T03:06:16;9.37;;;7.90;;
11665;SDS011;5889;51.350;6.708;2023-10-19T03:08:45;11.00;;;8.47;;
11665;SDS011;5889;51.350;6.708;2023-10-19T03:11:11;15.00;;;9.13;;
11665;SDS011;5889;51.350;6.708;2023-10-19T03:13:39;12.67;;;7.90;;
11665;SDS011;5889;51.350;6.708;2023-10-19T03:16:06;9.60;;;7.47;;
11665;SDS011;5889;51.350;6.708;2023-10-19T03:18:33;9.97;;;7.93;;
11665;SDS011;5889;51.350;6.708;2023-10-19T03:21:00;12.90;;;8.63;;
11665;SDS011;5889;51.350;6.708;2023-10-19T03:23:29;11.70;;;8.80;;
11665;SDS011;5889;51.350;6.708;2023-10-19T03:25:59;10.17;;;7.70;;
11665;SDS011;5889;51.350;6.708;2023-10-19T03:28:40;9.60;;;6.10;;
11665;SDS011;5889;51.350;6.708;2023-10-19T03:31:08;13.37;;;9.17;;
11665;SDS011;5889;51.350;6.708;2023-10-19T03:33:42;12.20;;;9.07;;
11665;SDS011;5889;51.350;6.708;2023-10-19T03:36:12;13.73;;;9.13;;
11665;SDS011;5889;51.350;6.708;2023-10-19T03:38:41;10.17;;;7.00;;
11665;SDS011;5889;51.350;6.708;2023-10-19T03:41:08;11.30;;;7.57;;
11665;SDS011;5889;51.350;6.708;2023-10-19T03:43:36;9.97;;;7.23;;
11665;SDS011;5889;51.350;6.708;2023-10-19T03:46:05;11.73;;;7.30;;
11665;SDS011;5889;51.350;6.708;2023-10-19T03:48:43;10.73;;;8.13;;
11665;SDS011;5889;51.350;6.708;2023-10-19T03:51:11;9.07;;;7.40;;
11665;SDS011;5889;51.350;6.708;2023-10-19T03:53:41;12.37;;;8.10;;
11665;SDS011;5889;51.350;6.708;2023-10-19T03:56:13;12.83;;;8.60;;
11665;SDS011;5889;51.350;6.708;2023-10-19T03:58:42;13.80;;;9.03;;
11665;SDS011;5889;51.350;6.708;2023-10-19T04:01:12;10.53;;;7.23;;
11665;SDS011;5889;51.350;6.708;2023-10-19T04:03:41;11.10;;;7.30;;
11665;SDS011;5889;51.350;6.708;2023-10-19T04:06:09;10.93;;;7.77;;
11665;SDS011;5889;51.350;6.708;2023-10-19T04:08:41;13.33;;;8.73;;
11665;SDS011;5889;51.350;6.708;2023-10-19T04:11:10;12.60;;;7.87;;
11665;SDS011;5889;51.350;6.708;2023-10-19T04:13:46;11.03;;;8.17;;
11665;SDS011;5889;51.350;6.708;2023-10-19T04:16:18;8.87;;;6.13;;
11665;SDS011;5889;51.350;6.708;2023-10-19T04:18:45;8.87;;;7.17;;
11665;SDS011;5889;51.350;6.708;2023-10-19T04:21:13;9.93;;;7.00;;
11665;SDS011;5889;51.350;6.708;2023-10-19T04:23:42;9.87;;;7.60;;
11665;SDS011;5889;51.350;6.708;2023-10-19T04:26:09;12.37;;;8.03;;
11665;SDS011;5889;51.350;6.708;2023-10-19T04:28:37;10.47;;;7.03;;
11665;SDS011;5889;51.350;6.708;2023-10-19T04:31:10;8.67;;;5.97;;
11665;SDS011;5889;51.350;6.708;2023-10-19T04:33:40;8.40;;;5.80;;
11665;SDS011;5889;51.350;6.708;2023-10-19T04:36:11;9.30;;;6.87;;
11665;SDS011;5889;51.350;6.708;2023-10-19T04:38:39;10.33;;;7.33;;
11665;SDS011;5889;51.350;6.708;2023-10-19T04:41:08;10.80;;;7.40;;
11665;SDS011;5889;51.350;6.708;2023-10-19T04:43:36;13.00;;;7.10;;
11665;SDS011;5889;51.350;6.708;2023-10-19T04:46:04;10.33;;;7.67;;
11665;SDS011;5889;51.350;6.708;2023-10-19T04:48:36;11.50;;;7.57;;
11665;SDS011;5889;51.350;6.708;2023-10-19T04:51:05;9.23;;;7.03;;
11665;SDS011;5889;51.350;6.708;2023-10-19T04:53:32;10.50;;;7.27;;
11665;SDS011;5889;51.350;6.708;2023-10-19T04:55:59;13.63;;;7.37;;
11665;SDS011;5889;51.350;6.708;2023-10-19T04:58:31;10.80;;;7.37;;
11665;SDS011;5889;51.350;6.708;2023-10-19T05:00:58;11.17;;;7.40;;
11665;SDS011;5889;51.350;6.708;2023-10-19T05:03:27;7.93;;;6.00;;
11665;SDS011;5889;51.350;6.708;2023-10-19T05:05:54;9.90;;;7.10;;
11665;SDS011;5889;51.350;6.708;2023-10-19T05:08:22;9.60;;;6.03;;
11665;SDS011;5889;51.350;6.708;2023-10-19T05:10:51;8.50;;;6.67;;
11665;SDS011;5889;51.350;6.708;2023-10-19T05:13:19;11.97;;;7.00;;
11665;SDS011;5889;51.350;6.708;2023-10-19T05:15:47;9.03;;;6.67;;
11665;SDS011;5889;51.350;6.708;2023-10-19T05:18:14;7.47;;;6.37;;
11665;SDS011;5889;51.350;6.708;2023-10-19T05:20:41;11.60;;;6.93;;
11665;SDS011;5889;51.350;6.708;2023-10-19T05:23:08;9.60;;;6.90;;
11665;SDS011;5889;51.350;6.708;2023-10-19T05:25:35;11.43;;;7.40;;
11665;SDS011;5889;51.350;6.708;2023-10-19T05:28:03;11.60;;;6.83;;
11665;SDS011;5889;51.350;6.708;2023-10-19T05:30:31;9.40;;;6.87;;
11665;SDS011;5889;51.350;6.708;2023-10-19T05:32:59;10.13;;;6.43;;
11665;SDS011;5889;51.350;6.708;2023-10-19T05:35:28;12.97;;;6.67;;
11665;SDS011;5889;51.350;6.708;2023-10-19T05:37:55;10.07;;;6.53;;
11665;SDS011;5889;51.350;6.708;2023-10-19T05:40:22;9.27;;;6.57;;
11665;SDS011;5889;51.350;6.708;2023-10-19T05:42:54;9.60;;;7.00;;
11665;SDS011;5889;51.350;6.708;2023-10-19T05:45:21;9.90;;;6.73;;
11665;SDS011;5889;51.350;6.708;2023-10-19T05:47:53;10.70;;;6.77;;
11665;SDS011;5889;51.350;6.708;2023-10-19T05:50:21;11.37;;;6.73;;
11665;SDS011;5889;51.350;6.708;2023-10-19T05:52:48;10.27;;;6.43;;
11665;SDS011;5889;51.350;6.708;2023-10-19T05:55:17;11.23;;;6.90;;
11665;SDS011;5889;51.350;6.708;2023-10-19T05:57:46;11.60;;;6.40;;
11665;SDS011;5889;51.350;6.708;2023-10-19T06:00:13;8.20;;;5.70;;
11665;SDS011;5889;51.350;6.708;2023-10-19T06:02:42;8.50;;;6.00;;
11665;SDS011;5889;51.350;6.708;2023-10-19T06:05:10;9.03;;;5.60;;
11665;SDS011;5889;51.350;6.708;2023-10-19T06:07:41;9.53;;;6.40;;
11665;SDS011;5889;51.350;6.708;2023-10-19T06:10:10;8.17;;;6.20;;
11665;SDS011;5889;51.350;6.708;2023-10-19T06:12:41;8.50;;;6.50;;
11665;SDS011;5889;51.350;6.708;2023-10-19T06:15:09;11.53;;;6.77;;
11665;SDS011;5889;51.350;6.708;2023-10-19T06:17:37;9.13;;;6.60;;
11665;SDS011;5889;51.350;6.708;2023-10-19T06:20:05;9.57;;;6.77;;
11665;SDS011;5889;51.350;6.708;2023-10-19T06:22:33;10.73;;;6.90;;
11665;SDS011;5889;51.350;6.708;2023-10-19T06:25:02;11.00;;;7.17;;
11665;SDS011;5889;51.350;6.708;2023-10-19T06:27:31;13.87;;;6.63;;
11665;SDS011;5889;51.350;6.708;2023-10-19T06:29:58;11.17;;;6.47;;
11665;SDS011;5889;51.350;6.708;2023-10-19T06:32:25;9.37;;;6.87;;
11665;SDS011;5889;51.350;6.708;2023-10-19T06:34:52;9.77;;;6.70;;
11665;SDS011;5889;51.350;6.708;2023-10-19T06:37:20;10.07;;;6.43;;
11665;SDS011;5889;51.350;6.708;2023-10-19T06:39:47;12.17;;;6.60;;
11665;SDS011;5889;51.350;6.708;2023-10-19T06:42:17;10.57;;;6.57;;
11665;SDS011;5889;51.350;6.708;2023-10-19T06:44:44;11.63;;;5.57;;
11665;SDS011;5889;51.350;6.708;2023-10-19T06:47:11;8.40;;;6.33;;
11665;SDS011;5889;51.350;6.708;2023-10-19T06:49:38;9.40;;;6.90;;
11665;SDS011;5889;51.350;6.708;2023-10-19T06:52:06;7.93;;;5.67;;
11665;SDS011;5889;51.350;6.708;2023-10-19T06:54:36;11.73;;;7.10;;
11665;SDS011;5889;51.350;6.708;2023-10-19T06:57:04;9.10;;;5.87;;
11665;SDS011;5889;51.350;6.708;2023-10-19T06:59:35;10.47;;;6.13;;
11665;SDS011;5889;51.350;6.708;2023-10-19T07:02:02;8.17;;;5.57;;
11665;SDS011;5889;51.350;6.708;2023-10-19T07:04:29;8.83;;;5.70;;
11665;SDS011;5889;51.350;6.708;2023-10-19T07:06:57;9.87;;;6.67;;
11665;SDS011;5889;51.350;6.708;2023-10-19T07:09:26;14.93;;;6.73;;
11665;SDS011;5889;51.350;6.708;2023-10-19T07:11:52;7.40;;;6.17;;
11665;SDS011;5889;51.350;6.708;2023-10-19T07:14:20;10.80;;;6.83;;
11665;SDS011;5889;51.350;6.708;2023-10-19T07:16:50;8.00;;;5.60;;
11665;SDS011;5889;51.350;6.708;2023-10-19T07:19:17;8.13;;;6.93;;
11665;SDS011;5889;51.350;6.708;2023-10-19T07:21:45;7.80;;;5.70;;
11665;SDS011;5889;51.350;6.708;2023-10-19T07:24:18;11.30;;;6.60;;
11665;SDS011;5889;51.350;6.708;2023-10-19T07:26:49;9.07;;;6.33;;
11665;SDS011;5889;51.350;6.708;2023-10-19T07:29:29;8.97;;;6.50;;
11665;SDS011;5889;51.350;6.708;2023-10-19T07:32:00;9.73;;;7.10;;
11665;SDS011;5889;51.350;6.708;2023-10-19T07:34:27;10.10;;;6.43;;
11665;SDS011;5889;51.350;6.708;2023-10-19T07:36:58;8.17;;;5.93;;
11665;SDS011;5889;51.350;6.708;2023-10-19T07:39:28;8.23;;;5.77;;
11665;SDS011;5889;51.350;6.708;2023-10-19T07:41:55;7.07;;;6.27;;
11665;SDS011;5889;51.350;6.708;2023-10-19T07:44:22;7.53;;;5.80;;
11665;SDS011;5889;51.350;6.708;2023-10-19T07:46:50;7.23;;;6.10;;
11665;SDS011;5889;51.350;6.708;2023-10-19T07:49:20;9.80;;;5.87;;
11665;SDS011;5889;51.350;6.708;2023-10-19T07:51:47;9.60;;;5.87;;
11665;SDS011;5889;51.350;6.708;2023-10-19T07:54:15;9.87;;;6.27;;
11665;SDS011;5889;51.350;6.708;2023-10-19T07:56:42;11.33;;;7.37;;
11665;SDS011;5889;51.350;6.708;2023-10-19T07:59:09;10.97;;;6.67;;
11665;SDS011;5889;51.350;6.708;2023-10-19T08:01:37;8.10;;;6.17;;
11665;SDS011;5889;51.350;6.708;2023-10-19T08:04:04;8.63;;;6.07;;
11665;SDS011;5889;51.350;6.708;2023-10-19T08:06:33;9.00;;;6.60;;
11665;SDS011;5889;51.350;6.708;2023-10-19T08:09:00;10.80;;;7.10;;
11665;SDS011;5889;51.350;6.708;2023-10-19T08:11:30;7.57;;;6.03;;
11665;SDS011;5889;51.350;6.708;2023-10-19T08:13:59;10.70;;;6.90;;
11665;SDS011;5889;51.350;6.708;2023-10-19T08:16:28;11.33;;;6.13;;
11665;SDS011;5889;51.350;6.708;2023-10-19T08:18:56;9.80;;;6.20;;
11665;SDS011;5889;51.350;6.708;2023-10-19T08:21:23;9.73;;;6.50;;
11665;SDS011;5889;51.350;6.708;2023-10-19T08:23:55;9.93;;;6.40;;
11665;SDS011;5889;51.350;6.708;2023-10-19T08:26:22;10.60;;;6.50;;
11665;SDS011;5889;51.350;6.708;2023-10-19T08:28:50;8.37;;;6.03;;
11665;SDS011;5889;51.350;6.708;2023-10-19T08:31:17;7.90;;;6.37;;
11665;SDS011;5889;51.350;6.708;2023-10-19T08:33:44;8.53;;;6.50;;
11665;SDS011;5889;51.350;6.708;2023-10-19T08:36:16;9.00;;;5.97;;
11665;SDS011;5889;51.350;6.708;2023-10-19T08:38:44;8.07;;;5.90;;
11665;SDS011;5889;51.350;6.708;2023-10-19T08:41:13;9.30;;;6.67;;
11665;SDS011;5889;51.350;6.708;2023-10-19T08:43:41;9.13;;;6.57;;
11665;SDS011;5889;51.350;6.708;2023-10-19T08:46:08;7.10;;;6.40;;
11665;SDS011;5889;51.350;6.708;2023-10-19T08:48:37;10.10;;;6.50;;
11665;SDS011;5889;51.350;6.708;2023-10-19T08:51:10;9.63;;;5.97;;
11665;SDS011;5889;51.350;6.708;2023-10-19T08:53:37;6.77;;;5.70;;
11665;SDS011;5889;51.350;6.708;2023-10-19T08:56:06;11.53;;;6.40;;
11665;SDS011;5889;51.350;6.708;2023-10-19T08:58:35;7.10;;;5.67;;
11665;SDS011;5889;51.350;6.708;2023-10-19T09:01:02;8.70;;;5.57;;
11665;SDS011;5889;51.350;6.708;2023-10-19T09:03:35;10.50;;;6.33;;
11665;SDS011;5889;51.350;6.708;2023-10-19T09:06:04;8.07;;;5.83;;
11665;SDS011;5889;51.350;6.708;2023-10-19T09:08:31;8.63;;;4.90;;
11665;SDS011;5889;51.350;6.708;2023-10-19T09:11:08;8.93;;;5.27;;
11665;SDS011;5889;51.350;6.708;2023-10-19T09:13:44;10.17;;;5.67;;
11665;SDS011;5889;51.350;6.708;2023-10-19T09:16:13;11.53;;;6.57;;
11665;SDS011;5889;51.350;6.708;2023-10-19T09:18:41;11.00;;;5.33;;
11665;SDS011;5889;51.350;6.708;2023-10-19T09:21:10;9.53;;;5.17;;
11665;SDS011;5889;51.350;6.708;2023-10-19T09:23:49;5.90;;;4.32;;
11665;SDS011;5889;51.350;6.708;2023-10-19T09:26:17;6.97;;;5.40;;
11665;SDS011;5889;51.350;6.708;2023-10-19T09:28:48;6.82;;;4.78;;
11665;SDS011;5889;51.350;6.708;2023-10-19T09:31:17;7.63;;;3.80;;
11665;SDS011;5889;51.350;6.708;2023-10-19T09:33:46;8.95;;;4.50;;
11665;SDS011;5889;51.350;6.708;2023-10-19T09:36:14;6.53;;;4.00;;
11665;SDS011;5889;51.350;6.708;2023-10-19T09:38:44;5.88;;;3.88;;
11665;SDS011;5889;51.350;6.708;2023-10-19T09:41:13;5.75;;;3.28;;
11665;SDS011;5889;51.350;6.708;2023-10-19T09:43:44;6.38;;;3.47;;
11665;SDS011;5889;51.350;6.708;2023-10-19T09:46:16;12.25;;;3.90;;
11665;SDS011;5889;51.350;6.708;2023-10-19T09:48:47;5.03;;;2.83;;
11665;SDS011;5889;51.350;6.708;2023-10-19T09:51:15;10.43;;;3.45;;
11665;SDS011;5889;51.350;6.708;2023-10-19T09:53:45;6.57;;;3.42;;
11665;SDS011;5889;51.350;6.708;2023-10-19T09:56:17;8.02;;;3.80;;
11665;SDS011;5889;51.350;6.708;2023-10-19T09:58:48;9.70;;;3.30;;
11665;SDS011;5889;51.350;6.708;2023-10-19T10:01:20;6.70;;;3.40;;
11665;SDS011;5889;51.350;6.708;2023-10-19T10:03:48;8.63;;;2.97;;
11665;SDS011;5889;51.350;6.708;2023-10-19T10:06:17;10.10;;;4.18;;
11665;SDS011;5889;51.350;6.708;2023-10-19T10:08:53;7.38;;;3.53;;
11665;SDS011;5889;51.350;6.708;2023-10-19T10:11:21;5.30;;;3.30;;
11665;SDS011;5889;51.350;6.708;2023-10-19T10:13:51;6.32;;;3.25;;
11665;SDS011;5889;51.350;6.708;2023-10-19T10:16:21;6.30;;;3.05;;
11665;SDS011;5889;51.350;6.708;2023-10-19T10:18:50;6.32;;;2.85;;
11665;SDS011;5889;51.350;6.708;2023-10-19T10:21:21;8.30;;;3.03;;
11665;SDS011;5889;51.350;6.708;2023-10-19T10:23:49;6.18;;;2.35;;
11665;SDS011;5889;51.350;6.708;2023-10-19T10:26:18;4.80;;;2.30;;
11665;SDS011;5889;51.350;6.708;2023-10-19T10:31:41;11.50;;;3.10;;
11665;SDS011;5889;51.350;6.708;2023-10-19T10:34:09;9.35;;;2.55;;
11665;SDS011;5889;51.350;6.708;2023-10-19T10:36:57;5.22;;;2.00;;
11665;SDS011;5889;51.350;6.708;2023-10-19T10:39:25;7.78;;;2.28;;
11665;SDS011;5889;51.350;6.708;2023-10-19T10:41:55;6.68;;;2.53;;
11665;SDS011;5889;51.350;6.708;2023-10-19T10:44:34;7.00;;;2.30;;
11665;SDS011;5889;51.350;6.708;2023-10-19T10:47:04;5.68;;;2.03;;
11665;SDS011;5889;51.350;6.708;2023-10-19T10:49:33;8.13;;;2.33;;
11665;SDS011;5889;51.350;6.708;2023-10-19T10:52:01;7.93;;;2.40;;
11665;SDS011;5889;51.350;6.708;2023-10-19T10:54:28;7.53;;;2.00;;
11665;SDS011;5889;51.350;6.708;2023-10-19T10:56:55;7.88;;;2.28;;
11665;SDS011;5889;51.350;6.708;2023-10-19T10:59:23;10.35;;;2.20;;
11665;SDS011;5889;51.350;6.708;2023-10-19T11:01:51;10.40;;;2.40;;
11665;SDS011;5889;51.350;6.708;2023-10-19T11:04:19;8.07;;;2.50;;
11665;SDS011;5889;51.350;6.708;2023-10-19T11:06:49;8.98;;;2.85;;
11665;SDS011;5889;51.350;6.708;2023-10-19T11:09:17;6.80;;;2.08;;
11665;SDS011;5889;51.350;6.708;2023-10-19T11:11:44;6.78;;;2.10;;
11665;SDS011;5889;51.350;6.708;2023-10-19T11:14:11;6.25;;;1.98;;
11665;SDS011;5889;51.350;6.708;2023-10-19T11:16:39;6.03;;;2.22;;
11665;SDS011;5889;51.350;6.708;2023-10-19T11:19:08;6.13;;;2.33;;
11665;SDS011;5889;51.350;6.708;2023-10-19T11:21:37;7.60;;;2.15;;
11665;SDS011;5889;51.350;6.708;2023-10-19T11:24:05;12.90;;;3.17;;
11665;SDS011;5889;51.350;6.708;2023-10-19T11:26:39;13.95;;;3.33;;
11665;SDS011;5889;51.350;6.708;2023-10-19T11:29:06;11.90;;;2.70;;
11665;SDS011;5889;51.350;6.708;2023-10-19T11:31:35;7.47;;;1.85;;
11665;SDS011;5889;51.350;6.708;2023-10-19T11:34:04;7.97;;;2.20;;
11665;SDS011;5889;51.350;6.708;2023-10-19T11:36:33;8.10;;;2.30;;
11665;SDS011;5889;51.350;6.708;2023-10-19T11:39:02;5.45;;;2.00;;
11665;SDS011;5889;51.350;6.708;2023-10-19T11:41:30;8.38;;;2.22;;
11665;SDS011;5889;51.350;6.708;2023-10-19T11:43:58;5.13;;;1.75;;
11665;SDS011;5889;51.350;6.708;2023-10-19T11:46:25;5.57;;;1.83;;
11665;SDS011;5889;51.350;6.708;2023-10-19T11:48:54;6.57;;;1.95;;
11665;SDS011;5889;51.350;6.708;2023-10-19T11:51:21;5.55;;;1.90;;
11665;SDS011;5889;51.350;6.708;2023-10-19T11:53:48;7.20;;;2.00;;
11665;SDS011;5889;51.350;6.708;2023-10-19T11:56:17;9.20;;;2.13;;
11665;SDS011;5889;51.350;6.708;2023-10-19T11:58:46;7.97;;;2.22;;
11665;SDS011;5889;51.350;6.708;2023-10-19T12:01:13;9.55;;;2.88;;
11665;SDS011;5889;51.350;6.708;2023-10-19T12:03:42;7.55;;;1.80;;
11665;SDS011;5889;51.350;6.708;2023-10-19T12:06:11;6.00;;;1.88;;
11665;SDS011;5889;51.350;6.708;2023-10-19T12:08:43;9.80;;;2.00;;
11665;SDS011;5889;51.350;6.708;2023-10-19T12:11:11;5.47;;;1.95;;
11665;SDS011;5889;51.350;6.708;2023-10-19T12:13:43;8.52;;;2.08;;
11665;SDS011;5889;51.350;6.708;2023-10-19T12:16:11;10.48;;;2.22;;
11665;SDS011;5889;51.350;6.708;2023-10-19T12:18:40;10.25;;;2.15;;
11665;SDS011;5889;51.350;6.708;2023-10-19T12:21:08;5.68;;;1.73;;
11665;SDS011;5889;51.350;6.708;2023-10-19T12:23:38;8.73;;;2.08;;
11665;SDS011;5889;51.350;6.708;2023-10-19T12:26:05;6.63;;;1.90;;
11665;SDS011;5889;51.350;6.708;2023-10-19T12:28:36;7.53;;;1.80;;
11665;SDS011;5889;51.350;6.708;2023-10-19T12:31:05;7.75;;;2.00;;
11665;SDS011;5889;51.350;6.708;2023-10-19T12:33:33;10.05;;;1.95;;
11665;SDS011;5889;51.350;6.708;2023-10-19T12:36:01;7.90;;;1.90;;
11665;SDS011;5889;51.350;6.708;2023-10-19T12:38:47;5.25;;;1.58;;
11665;SDS011;5889;51.350;6.708;2023-10-19T12:41:14;7.43;;;2.30;;
11665;SDS011;5889;51.350;6.708;2023-10-19T12:43:42;7.20;;;1.90;;
11665;SDS011;5889;51.350;6.708;2023-10-19T12:46:12;7.38;;;2.10;;
11665;SDS011;5889;51.350;6.708;2023-10-19T12:48:41;6.78;;;2.05;;
11665;SDS011;5889;51.350;6.708;2023-10-19T12:51:08;5.05;;;2.25;;
11665;SDS011;5889;51.350;6.708;2023-10-19T12:53:36;4.45;;;1.90;;
11665;SDS011;5889;51.350;6.708;2023-10-19T12:56:04;7.55;;;2.10;;
11665;SDS011;5889;51.350;6.708;2023-10-19T12:58:32;9.95;;;2.10;;
11665;SDS011;5889;51.350;6.708;2023-10-19T13:01:00;5.53;;;2.00;;
11665;SDS011;5889;51.350;6.708;2023-10-19T13:03:34;6.80;;;1.80;;
11665;SDS011;5889;51.350;6.708;2023-10-19T13:06:04;6.95;;;2.35;;
11665;SDS011;5889;51.350;6.708;2023-10-19T13:08:32;7.03;;;1.92;;
11665;SDS011;5889;51.350;6.708;2023-10-19T13:10:59;7.28;;;1.95;;
11665;SDS011;5889;51.350;6.708;2023-10-19T13:13:26;8.80;;;1.95;;
11665;SDS011;5889;51.350;6.708;2023-10-19T13:15:53;7.43;;;1.70;;
11665;SDS011;5889;51.350;6.708;2023-10-19T13:18:20;7.82;;;2.13;;
11665;SDS011;5889;51.350;6.708;2023-10-19T13:20:54;7.85;;;1.77;;
11665;SDS011;5889;51.350;6.708;2023-10-19T13:23:22;8.25;;;2.47;;
11665;SDS011;5889;51.350;6.708;2023-10-19T13:25:49;8.10;;;1.90;;
11665;SDS011;5889;51.350;6.708;2023-10-19T13:28:19;6.70;;;2.75;;
11665;SDS011;5889;51.350;6.708;2023-10-19T13:30:47;8.15;;;1.85;;
11665;SDS011;5889;51.350;6.708;2023-10-19T13:33:16;6.07;;;2.15;;
11665;SDS011;5889;51.350;6.708;2023-10-19T13:35:46;8.18;;;1.85;;
11665;SDS011;5889;51.350;6.708;2023-10-19T13:38:15;12.95;;;2.17;;
11665;SDS011;5889;51.350;6.708;2023-10-19T13:40:44;9.05;;;2.60;;
11665;SDS011;5889;51.350;6.708;2023-10-19T13:43:12;13.50;;;2.72;;
11665;SDS011;5889;51.350;6.708;2023-10-19T13:45:40;7.43;;;2.28;;
11665;SDS011;5889;51.350;6.708;2023-10-19T13:48:09;9.80;;;2.40;;
11665;SDS011;5889;51.350;6.708;2023-10-19T13:50:40;8.02;;;2.60;;
11665;SDS011;5889;51.350;6.708;2023-10-19T13:53:09;6.32;;;2.05;;
11665;SDS011;5889;51.350;6.708;2023-10-19T13:55:37;11.43;;;3.10;;
11665;SDS011;5889;51.350;6.708;2023-10-19T13:58:04;8.10;;;2.00;;
11665;SDS011;5889;51.350;6.708;2023-10-19T14:00:33;8.60;;;2.58;;
11665;SDS011;5889;51.350;6.708;2023-10-19T14:03:05;9.55;;;2.30;;
11665;SDS011;5889;51.350;6.708;2023-10-19T14:05:35;8.70;;;2.22;;
11665;SDS011;5889;51.350;6.708;2023-10-19T14:08:03;7.53;;;2.47;;
11665;SDS011;5889;51.350;6.708;2023-10-19T14:10:34;6.60;;;2.10;;
11665;SDS011;5889;51.350;6.708;2023-10-19T14:13:03;10.27;;;2.60;;
11665;SDS011;5889;51.350;6.708;2023-10-19T14:15:30;7.55;;;2.10;;
11665;SDS011;5889;51.350;6.708;2023-10-19T14:17:59;5.88;;;2.72;;
11665;SDS011;5889;51.350;6.708;2023-10-19T14:20:28;7.90;;;2.33;;
11665;SDS011;5889;51.350;6.708;2023-10-19T14:22:55;5.82;;;2.28;;
11665;SDS011;5889;51.350;6.708;2023-10-19T14:25:23;7.55;;;2.05;;
11665;SDS011;5889;51.350;6.708;2023-10-19T14:27:52;6.07;;;2.15;;
11665;SDS011;5889;51.350;6.708;2023-10-19T14:30:25;9.00;;;2.47;;
11665;SDS011;5889;51.350;6.708;2023-10-19T14:32:54;9.65;;;2.28;;
11665;SDS011;5889;51.350;6.708;2023-10-19T14:35:23;9.93;;;2.58;;
11665;SDS011;5889;51.350;6.708;2023-10-19T14:37:52;9.10;;;2.47;;
11665;SDS011;5889;51.350;6.708;2023-10-19T14:40:21;8.10;;;2.55;;
11665;SDS011;5889;51.350;6.708;2023-10-19T14:42:50;6.55;;;2.00;;
11665;SDS011;5889;51.350;6.708;2023-10-19T14:45:19;6.15;;;2.40;;
11665;SDS011;5889;51.350;6.708;2023-10-19T14:47:52;6.38;;;2.00;;
11665;SDS011;5889;51.350;6.708;2023-10-19T14:50:20;7.07;;;2.10;;
11665;SDS011;5889;51.350;6.708;2023-10-19T14:52:48;5.88;;;2.10;;
11665;SDS011;5889;51.350;6.708;2023-10-19T14:55:16;6.28;;;2.20;;
11665;SDS011;5889;51.350;6.708;2023-10-19T14:57:45;5.53;;;2.25;;
11665;SDS011;5889;51.350;6.708;2023-10-19T15:00:14;7.25;;;2.17;;
11665;SDS011;5889;51.350;6.708;2023-10-19T15:02:47;9.20;;;2.60;;
11665;SDS011;5889;51.350;6.708;2023-10-19T15:05:16;6.47;;;2.00;;
11665;SDS011;5889;51.350;6.708;2023-10-19T15:07:45;7.18;;;2.35;;
11665;SDS011;5889;51.350;6.708;2023-10-19T15:10:16;6.75;;;2.42;;
11665;SDS011;5889;51.350;6.708;2023-10-19T15:12:44;6.78;;;2.35;;